This is the latest recevied weather packets stored in our database for station/object OE3UKW. If no packets are shown the sender has not sent any weather packets the latest 10 day(s).
| Time | Temp. | Humidity | Pressure | Rain* | Wind** | Luminosity | Snow |
|---|---|---|---|---|---|---|---|
| 1777704671 | 16.67° C | 42% | 1026.2 hPa | 0 mm | - | 470 W/m² | - |
| 1777704071 | 16.11° C | 44% | 1026.3 hPa | 0 mm | - | 435 W/m² | - |
| 1777703471 | 15.56° C | 45% | 1026.2 hPa | 0 mm | - | 373 W/m² | - |
| 1777702871 | 15° C | 47% | 1026.3 hPa | 0 mm | - | 252 W/m² | - |
| 1777702271 | 13.89° C | 50% | 1026.4 hPa | 0 mm | - | 234 W/m² | - |
| 1777701671 | 13.33° C | 50% | 1026.4 hPa | 0 mm | - | 259 W/m² | - |
| 1777701071 | 12.78° C | 51% | 1026.4 hPa | 0 mm | - | 254 W/m² | - |
| 1777700471 | 12.22° C | 52% | 1026.3 hPa | 0 mm | - | 208 W/m² | - |
| 1777699871 | 11.11° C | 53% | 1026.1 hPa | 0 mm | - | 213 W/m² | - |
| 1777699271 | 10.56° C | 55% | 1026.1 hPa | 0 mm | - | 215 W/m² | - |
| 1777698671 | 10° C | 56% | 1026.3 hPa | 0 mm | - | 186 W/m² | - |
| 1777698071 | 9.44° C | 58% | 1026.5 hPa | 0 mm | - | 153 W/m² | - |
| 1777697471 | 8.33° C | 60% | 1026.2 hPa | 0 mm | - | 100 W/m² | - |
| 1777696871 | 7.78° C | 63% | 1026.2 hPa | 0 mm | - | 86 W/m² | - |
| 1777696271 | 6.67° C | 65% | 1025.9 hPa | 0 mm | - | 64 W/m² | - |
| 1777695670 | 5.56° C | 65% | 1025.9 hPa | 0 mm | - | 45 W/m² | - |
| 1777695071 | 5.56° C | 61% | 1026 hPa | 0 mm | - | 33 W/m² | - |
| 1777694471 | 6.11° C | 60% | 1025.8 hPa | 0 mm | - | 16 W/m² | - |
| 1777693871 | 6.67° C | 59% | 1025.8 hPa | 0 mm | - | 11 W/m² | - |
| 1777693271 | 6.67° C | 58% | 1025.8 hPa | 0 mm | - | 7 W/m² | - |
| 1777692670 | 7.22° C | 58% | 1025.9 hPa | 0 mm | - | 0 W/m² | - |
| 1777692071 | 7.78° C | 59% | 1025.9 hPa | 0 mm | - | 0 W/m² | - |
| 1777691470 | 7.78° C | 59% | 1025.9 hPa | 0 mm | - | 0 W/m² | - |
| 1777690870 | 8.33° C | 59% | 1025.7 hPa | 0 mm | - | 0 W/m² | - |
| 1777690270 | 7.78° C | 59% | 1025.8 hPa | 0 mm | - | 0 W/m² | - |
* Rain latest hour (hover to see other rain measurements)
** Current wind speed in m/s (hover to see current wind gust speed)